sensor_id;sensor_type;location;lat;lon;timestamp;P1;durP1;ratioP1;P2;durP2;ratioP2
39242;SDS011;29823;47.404;8.566;2022-11-15T00:01:00;44.55;;;14.55;;
39242;SDS011;29823;47.404;8.566;2022-11-15T00:03:28;27.35;;;12.40;;
39242;SDS011;29823;47.404;8.566;2022-11-15T00:06:00;134.18;;;14.10;;
39242;SDS011;29823;47.404;8.566;2022-11-15T00:08:31;47.22;;;12.00;;
39242;SDS011;29823;47.404;8.566;2022-11-15T00:11:00;96.53;;;14.85;;
39242;SDS011;29823;47.404;8.566;2022-11-15T00:13:29;132.55;;;16.60;;
39242;SDS011;29823;47.404;8.566;2022-11-15T00:15:58;130.80;;;15.52;;
39242;SDS011;29823;47.404;8.566;2022-11-15T00:18:27;104.32;;;15.35;;
39242;SDS011;29823;47.404;8.566;2022-11-15T00:20:56;149.52;;;18.70;;
39242;SDS011;29823;47.404;8.566;2022-11-15T00:23:33;215.95;;;16.13;;
39242;SDS011;29823;47.404;8.566;2022-11-15T00:26:01;273.70;;;17.48;;
39242;SDS011;29823;47.404;8.566;2022-11-15T00:28:29;78.57;;;13.63;;
39242;SDS011;29823;47.404;8.566;2022-11-15T00:31:00;65.63;;;13.52;;
39242;SDS011;29823;47.404;8.566;2022-11-15T00:33:28;74.28;;;12.77;;
39242;SDS011;29823;47.404;8.566;2022-11-15T00:36:00;99.55;;;14.63;;
39242;SDS011;29823;47.404;8.566;2022-11-15T00:38:30;98.80;;;12.43;;
39242;SDS011;29823;47.404;8.566;2022-11-15T00:41:00;50.65;;;10.48;;
39242;SDS011;29823;47.404;8.566;2022-11-15T00:43:34;67.45;;;11.35;;
39242;SDS011;29823;47.404;8.566;2022-11-15T00:46:02;67.25;;;10.23;;
39242;SDS011;29823;47.404;8.566;2022-11-15T00:48:31;102.35;;;12.75;;
39242;SDS011;29823;47.404;8.566;2022-11-15T00:50:59;132.82;;;12.93;;
39242;SDS011;29823;47.404;8.566;2022-11-15T00:53:27;183.27;;;15.23;;
39242;SDS011;29823;47.404;8.566;2022-11-15T00:55:57;370.27;;;20.15;;
39242;SDS011;29823;47.404;8.566;2022-11-15T00:58:24;111.63;;;11.77;;
39242;SDS011;29823;47.404;8.566;2022-11-15T01:00:52;146.57;;;13.00;;
39242;SDS011;29823;47.404;8.566;2022-11-15T01:03:21;46.35;;;9.82;;
39242;SDS011;29823;47.404;8.566;2022-11-15T01:05:48;27.45;;;12.05;;
39242;SDS011;29823;47.404;8.566;2022-11-15T01:08:16;46.72;;;11.55;;
39242;SDS011;29823;47.404;8.566;2022-11-15T01:10:44;53.63;;;11.40;;
39242;SDS011;29823;47.404;8.566;2022-11-15T01:13:13;17.05;;;10.95;;
39242;SDS011;29823;47.404;8.566;2022-11-15T01:15:41;11.27;;;8.05;;
39242;SDS011;29823;47.404;8.566;2022-11-15T01:18:10;22.92;;;9.13;;
39242;SDS011;29823;47.404;8.566;2022-11-15T01:20:39;9.90;;;7.45;;
39242;SDS011;29823;47.404;8.566;2022-11-15T01:23:08;8.77;;;6.28;;
39242;SDS011;29823;47.404;8.566;2022-11-15T01:25:35;10.65;;;7.03;;
39242;SDS011;29823;47.404;8.566;2022-11-15T01:28:03;10.48;;;7.45;;
39242;SDS011;29823;47.404;8.566;2022-11-15T01:30:33;14.18;;;8.63;;
39242;SDS011;29823;47.404;8.566;2022-11-15T01:33:02;11.90;;;8.27;;
39242;SDS011;29823;47.404;8.566;2022-11-15T01:35:31;11.63;;;7.93;;
39242;SDS011;29823;47.404;8.566;2022-11-15T01:37:58;11.73;;;6.75;;
39242;SDS011;29823;47.404;8.566;2022-11-15T01:40:26;10.50;;;6.60;;
39242;SDS011;29823;47.404;8.566;2022-11-15T01:42:54;9.27;;;6.60;;
39242;SDS011;29823;47.404;8.566;2022-11-15T01:45:22;9.77;;;6.20;;
39242;SDS011;29823;47.404;8.566;2022-11-15T01:47:51;8.15;;;6.03;;
39242;SDS011;29823;47.404;8.566;2022-11-15T01:50:22;11.30;;;7.38;;
39242;SDS011;29823;47.404;8.566;2022-11-15T01:52:54;7.85;;;5.95;;
39242;SDS011;29823;47.404;8.566;2022-11-15T01:55:22;7.55;;;5.50;;
39242;SDS011;29823;47.404;8.566;2022-11-15T01:57:53;6.80;;;5.30;;
39242;SDS011;29823;47.404;8.566;2022-11-15T02:02:54;8.82;;;4.93;;
39242;SDS011;29823;47.404;8.566;2022-11-15T02:05:22;8.38;;;5.25;;
39242;SDS011;29823;47.404;8.566;2022-11-15T02:07:50;8.00;;;5.10;;
39242;SDS011;29823;47.404;8.566;2022-11-15T02:10:19;8.00;;;4.70;;
39242;SDS011;29823;47.404;8.566;2022-11-15T02:12:48;8.77;;;5.05;;
39242;SDS011;29823;47.404;8.566;2022-11-15T02:15:17;8.43;;;4.63;;
39242;SDS011;29823;47.404;8.566;2022-11-15T02:17:48;7.97;;;4.43;;
39242;SDS011;29823;47.404;8.566;2022-11-15T02:23:16;6.63;;;3.20;;
39242;SDS011;29823;47.404;8.566;2022-11-15T02:26:04;8.57;;;4.10;;
39242;SDS011;29823;47.404;8.566;2022-11-15T02:28:52;11.77;;;4.70;;
39242;SDS011;29823;47.404;8.566;2022-11-15T02:31:31;13.77;;;5.25;;
39242;SDS011;29823;47.404;8.566;2022-11-15T02:34:08;10.27;;;6.07;;
39242;SDS011;29823;47.404;8.566;2022-11-15T02:36:47;8.32;;;5.55;;
39242;SDS011;29823;47.404;8.566;2022-11-15T02:39:24;8.48;;;5.63;;
39242;SDS011;29823;47.404;8.566;2022-11-15T02:41:57;18.25;;;6.55;;
39242;SDS011;29823;47.404;8.566;2022-11-15T02:44:30;10.45;;;5.88;;
39242;SDS011;29823;47.404;8.566;2022-11-15T02:47:05;9.95;;;6.57;;
39242;SDS011;29823;47.404;8.566;2022-11-15T02:49:45;9.23;;;6.35;;
39242;SDS011;29823;47.404;8.566;2022-11-15T02:52:14;9.07;;;5.30;;
39242;SDS011;29823;47.404;8.566;2022-11-15T02:54:52;10.43;;;5.80;;
39242;SDS011;29823;47.404;8.566;2022-11-15T02:57:23;9.55;;;5.97;;
39242;SDS011;29823;47.404;8.566;2022-11-15T03:00:01;10.68;;;6.30;;
39242;SDS011;29823;47.404;8.566;2022-11-15T03:05:46;10.57;;;5.93;;
39242;SDS011;29823;47.404;8.566;2022-11-15T03:08:22;10.25;;;5.30;;
39242;SDS011;29823;47.404;8.566;2022-11-15T03:11:01;10.38;;;5.57;;
39242;SDS011;29823;47.404;8.566;2022-11-15T03:13:36;13.80;;;5.43;;
39242;SDS011;29823;47.404;8.566;2022-11-15T03:16:15;11.68;;;6.05;;
39242;SDS011;29823;47.404;8.566;2022-11-15T03:18:49;11.48;;;5.47;;
39242;SDS011;29823;47.404;8.566;2022-11-15T03:21:23;6.80;;;4.57;;
39242;SDS011;29823;47.404;8.566;2022-11-15T03:23:52;9.10;;;5.20;;
39242;SDS011;29823;47.404;8.566;2022-11-15T03:26:22;11.20;;;6.15;;
39242;SDS011;29823;47.404;8.566;2022-11-15T03:28:53;15.68;;;6.60;;
39242;SDS011;29823;47.404;8.566;2022-11-15T03:34:21;10.07;;;6.03;;
39242;SDS011;29823;47.404;8.566;2022-11-15T03:36:53;15.00;;;6.55;;
39242;SDS011;29823;47.404;8.566;2022-11-15T03:39:21;12.65;;;7.32;;
39242;SDS011;29823;47.404;8.566;2022-11-15T03:41:51;12.05;;;7.00;;
39242;SDS011;29823;47.404;8.566;2022-11-15T03:44:33;15.70;;;7.97;;
39242;SDS011;29823;47.404;8.566;2022-11-15T03:47:07;14.93;;;8.10;;
39242;SDS011;29823;47.404;8.566;2022-11-15T03:49:42;15.57;;;8.32;;
39242;SDS011;29823;47.404;8.566;2022-11-15T03:52:13;15.63;;;8.38;;
39242;SDS011;29823;47.404;8.566;2022-11-15T03:54:52;16.33;;;7.63;;
39242;SDS011;29823;47.404;8.566;2022-11-15T03:57:21;14.25;;;8.10;;
39242;SDS011;29823;47.404;8.566;2022-11-15T03:59:49;14.32;;;6.93;;
39242;SDS011;29823;47.404;8.566;2022-11-15T04:02:17;16.98;;;8.13;;
39242;SDS011;29823;47.404;8.566;2022-11-15T04:04:46;17.02;;;8.43;;
39242;SDS011;29823;47.404;8.566;2022-11-15T04:07:14;14.07;;;7.40;;
39242;SDS011;29823;47.404;8.566;2022-11-15T04:09:42;13.18;;;7.45;;
39242;SDS011;29823;47.404;8.566;2022-11-15T04:12:28;13.05;;;6.38;;
39242;SDS011;29823;47.404;8.566;2022-11-15T04:14:59;11.70;;;5.93;;
39242;SDS011;29823;47.404;8.566;2022-11-15T04:17:36;11.15;;;6.80;;
39242;SDS011;29823;47.404;8.566;2022-11-15T04:20:07;11.82;;;6.65;;
39242;SDS011;29823;47.404;8.566;2022-11-15T04:22:54;17.75;;;6.53;;
39242;SDS011;29823;47.404;8.566;2022-11-15T04:25:40;13.05;;;6.22;;
39242;SDS011;29823;47.404;8.566;2022-11-15T04:28:08;15.15;;;7.97;;
39242;SDS011;29823;47.404;8.566;2022-11-15T04:30:36;14.82;;;7.85;;
39242;SDS011;29823;47.404;8.566;2022-11-15T04:33:04;17.60;;;8.02;;
39242;SDS011;29823;47.404;8.566;2022-11-15T04:35:34;14.35;;;8.30;;
39242;SDS011;29823;47.404;8.566;2022-11-15T04:38:03;20.25;;;8.32;;
39242;SDS011;29823;47.404;8.566;2022-11-15T04:40:32;18.05;;;7.20;;
39242;SDS011;29823;47.404;8.566;2022-11-15T04:43:00;14.43;;;6.78;;
39242;SDS011;29823;47.404;8.566;2022-11-15T04:45:29;11.35;;;6.07;;
39242;SDS011;29823;47.404;8.566;2022-11-15T04:47:57;8.85;;;5.35;;
39242;SDS011;29823;47.404;8.566;2022-11-15T04:50:25;11.27;;;4.72;;
39242;SDS011;29823;47.404;8.566;2022-11-15T04:52:54;14.65;;;4.90;;
39242;SDS011;29823;47.404;8.566;2022-11-15T04:55:22;7.35;;;4.28;;
39242;SDS011;29823;47.404;8.566;2022-11-15T04:57:56;5.60;;;3.50;;
39242;SDS011;29823;47.404;8.566;2022-11-15T05:00:25;5.53;;;3.03;;
39242;SDS011;29823;47.404;8.566;2022-11-15T05:02:54;8.02;;;3.72;;
39242;SDS011;29823;47.404;8.566;2022-11-15T05:05:40;10.50;;;4.25;;
39242;SDS011;29823;47.404;8.566;2022-11-15T05:08:09;6.40;;;3.53;;
39242;SDS011;29823;47.404;8.566;2022-11-15T05:10:37;9.65;;;4.75;;
39242;SDS011;29823;47.404;8.566;2022-11-15T05:13:05;7.38;;;4.00;;
39242;SDS011;29823;47.404;8.566;2022-11-15T05:15:32;8.93;;;4.15;;
39242;SDS011;29823;47.404;8.566;2022-11-15T05:18:00;6.97;;;4.10;;
39242;SDS011;29823;47.404;8.566;2022-11-15T05:20:28;7.10;;;4.32;;
39242;SDS011;29823;47.404;8.566;2022-11-15T05:22:56;13.13;;;5.20;;
39242;SDS011;29823;47.404;8.566;2022-11-15T05:25:25;9.73;;;5.32;;
39242;SDS011;29823;47.404;8.566;2022-11-15T05:27:53;18.23;;;6.15;;
39242;SDS011;29823;47.404;8.566;2022-11-15T05:30:21;17.15;;;7.10;;
39242;SDS011;29823;47.404;8.566;2022-11-15T05:32:49;14.48;;;7.70;;
39242;SDS011;29823;47.404;8.566;2022-11-15T05:35:18;9.55;;;6.88;;
39242;SDS011;29823;47.404;8.566;2022-11-15T05:37:52;8.55;;;5.97;;
39242;SDS011;29823;47.404;8.566;2022-11-15T05:40:20;10.02;;;6.18;;
39242;SDS011;29823;47.404;8.566;2022-11-15T05:42:49;10.85;;;6.20;;
39242;SDS011;29823;47.404;8.566;2022-11-15T05:45:17;8.73;;;6.15;;
39242;SDS011;29823;47.404;8.566;2022-11-15T05:47:52;9.35;;;5.28;;
39242;SDS011;29823;47.404;8.566;2022-11-15T05:50:21;9.57;;;5.68;;
39242;SDS011;29823;47.404;8.566;2022-11-15T05:52:49;7.80;;;5.30;;
39242;SDS011;29823;47.404;8.566;2022-11-15T05:55:17;6.50;;;4.40;;
39242;SDS011;29823;47.404;8.566;2022-11-15T05:57:45;10.13;;;4.88;;
39242;SDS011;29823;47.404;8.566;2022-11-15T06:00:15;8.07;;;5.30;;
39242;SDS011;29823;47.404;8.566;2022-11-15T06:02:43;11.73;;;5.70;;
39242;SDS011;29823;47.404;8.566;2022-11-15T06:05:10;6.85;;;5.35;;
39242;SDS011;29823;47.404;8.566;2022-11-15T06:07:38;7.57;;;5.10;;
39242;SDS011;29823;47.404;8.566;2022-11-15T06:10:07;10.15;;;4.70;;
39242;SDS011;29823;47.404;8.566;2022-11-15T06:12:35;7.32;;;4.63;;
39242;SDS011;29823;47.404;8.566;2022-11-15T06:15:03;7.93;;;3.90;;
39242;SDS011;29823;47.404;8.566;2022-11-15T06:17:33;9.63;;;4.25;;
39242;SDS011;29823;47.404;8.566;2022-11-15T06:20:01;5.50;;;3.75;;
39242;SDS011;29823;47.404;8.566;2022-11-15T06:22:29;11.02;;;4.38;;
39242;SDS011;29823;47.404;8.566;2022-11-15T06:24:57;8.20;;;4.40;;
39242;SDS011;29823;47.404;8.566;2022-11-15T06:27:30;17.10;;;4.68;;
39242;SDS011;29823;47.404;8.566;2022-11-15T06:29:58;7.57;;;5.13;;
39242;SDS011;29823;47.404;8.566;2022-11-15T06:32:26;6.97;;;5.07;;
39242;SDS011;29823;47.404;8.566;2022-11-15T06:34:55;7.63;;;5.80;;
39242;SDS011;29823;47.404;8.566;2022-11-15T06:37:23;7.05;;;5.68;;
39242;SDS011;29823;47.404;8.566;2022-11-15T06:39:51;8.80;;;5.88;;
39242;SDS011;29823;47.404;8.566;2022-11-15T06:42:18;6.68;;;5.00;;
39242;SDS011;29823;47.404;8.566;2022-11-15T06:44:46;7.68;;;5.40;;
39242;SDS011;29823;47.404;8.566;2022-11-15T06:47:14;7.45;;;5.20;;
39242;SDS011;29823;47.404;8.566;2022-11-15T06:49:42;9.30;;;5.70;;
39242;SDS011;29823;47.404;8.566;2022-11-15T06:52:11;7.55;;;5.28;;
39242;SDS011;29823;47.404;8.566;2022-11-15T06:54:39;8.82;;;5.80;;
39242;SDS011;29823;47.404;8.566;2022-11-15T06:57:07;10.18;;;6.13;;
39242;SDS011;29823;47.404;8.566;2022-11-15T06:59:34;10.82;;;6.07;;
39242;SDS011;29823;47.404;8.566;2022-11-15T07:02:06;6.57;;;4.67;;
39242;SDS011;29823;47.404;8.566;2022-11-15T07:04:37;7.63;;;4.97;;
39242;SDS011;29823;47.404;8.566;2022-11-15T07:07:05;6.30;;;4.72;;
39242;SDS011;29823;47.404;8.566;2022-11-15T07:09:34;10.32;;;4.65;;
39242;SDS011;29823;47.404;8.566;2022-11-15T07:12:02;8.85;;;4.70;;
39242;SDS011;29823;47.404;8.566;2022-11-15T07:14:33;13.73;;;4.85;;
39242;SDS011;29823;47.404;8.566;2022-11-15T07:17:02;15.77;;;5.20;;
39242;SDS011;29823;47.404;8.566;2022-11-15T07:19:31;7.85;;;4.53;;
39242;SDS011;29823;47.404;8.566;2022-11-15T07:21:59;9.43;;;4.75;;
39242;SDS011;29823;47.404;8.566;2022-11-15T07:24:27;9.57;;;4.10;;
39242;SDS011;29823;47.404;8.566;2022-11-15T07:26:57;6.97;;;4.30;;
39242;SDS011;29823;47.404;8.566;2022-11-15T07:29:24;9.60;;;4.07;;
39242;SDS011;29823;47.404;8.566;2022-11-15T07:31:52;6.32;;;4.38;;
39242;SDS011;29823;47.404;8.566;2022-11-15T07:34:20;6.95;;;4.57;;
39242;SDS011;29823;47.404;8.566;2022-11-15T07:36:48;12.52;;;4.78;;
39242;SDS011;29823;47.404;8.566;2022-11-15T07:39:16;15.65;;;7.43;;
39242;SDS011;29823;47.404;8.566;2022-11-15T07:41:43;16.27;;;8.23;;
39242;SDS011;29823;47.404;8.566;2022-11-15T07:44:15;22.27;;;9.88;;
39242;SDS011;29823;47.404;8.566;2022-11-15T07:46:43;24.70;;;10.00;;
39242;SDS011;29823;47.404;8.566;2022-11-15T07:49:11;20.92;;;9.30;;
39242;SDS011;29823;47.404;8.566;2022-11-15T07:51:38;16.08;;;9.25;;
39242;SDS011;29823;47.404;8.566;2022-11-15T07:54:06;24.25;;;10.07;;
39242;SDS011;29823;47.404;8.566;2022-11-15T07:56:34;23.77;;;9.05;;
39242;SDS011;29823;47.404;8.566;2022-11-15T07:59:02;25.13;;;9.77;;
39242;SDS011;29823;47.404;8.566;2022-11-15T08:01:31;21.02;;;9.50;;
39242;SDS011;29823;47.404;8.566;2022-11-15T08:03:59;17.50;;;9.07;;
39242;SDS011;29823;47.404;8.566;2022-11-15T08:06:27;19.13;;;8.90;;
39242;SDS011;29823;47.404;8.566;2022-11-15T08:08:55;23.67;;;9.32;;
39242;SDS011;29823;47.404;8.566;2022-11-15T08:11:23;21.13;;;8.90;;
39242;SDS011;29823;47.404;8.566;2022-11-15T08:13:50;23.73;;;8.52;;
39242;SDS011;29823;47.404;8.566;2022-11-15T08:16:18;18.00;;;8.55;;
39242;SDS011;29823;47.404;8.566;2022-11-15T08:18:48;19.95;;;8.52;;
39242;SDS011;29823;47.404;8.566;2022-11-15T08:21:17;18.30;;;8.30;;
39242;SDS011;29823;47.404;8.566;2022-11-15T08:23:46;18.27;;;8.98;;
39242;SDS011;29823;47.404;8.566;2022-11-15T08:26:14;13.52;;;7.95;;
39242;SDS011;29823;47.404;8.566;2022-11-15T08:28:42;19.40;;;9.00;;
39242;SDS011;29823;47.404;8.566;2022-11-15T08:31:13;23.33;;;9.63;;
39242;SDS011;29823;47.404;8.566;2022-11-15T08:33:43;16.63;;;8.40;;
39242;SDS011;29823;47.404;8.566;2022-11-15T08:36:14;19.50;;;9.00;;
39242;SDS011;29823;47.404;8.566;2022-11-15T08:38:43;21.30;;;8.70;;
39242;SDS011;29823;47.404;8.566;2022-11-15T08:41:12;27.17;;;8.35;;
39242;SDS011;29823;47.404;8.566;2022-11-15T08:43:44;18.70;;;8.45;;
39242;SDS011;29823;47.404;8.566;2022-11-15T08:46:12;14.63;;;8.43;;
39242;SDS011;29823;47.404;8.566;2022-11-15T08:48:41;16.80;;;7.82;;
39242;SDS011;29823;47.404;8.566;2022-11-15T08:51:09;15.77;;;7.68;;
39242;SDS011;29823;47.404;8.566;2022-11-15T08:53:38;15.43;;;7.63;;
39242;SDS011;29823;47.404;8.566;2022-11-15T08:56:06;22.77;;;7.80;;
39242;SDS011;29823;47.404;8.566;2022-11-15T08:58:35;13.55;;;7.15;;
39242;SDS011;29823;47.404;8.566;2022-11-15T09:01:03;16.05;;;7.75;;
39242;SDS011;29823;47.404;8.566;2022-11-15T09:03:32;13.27;;;7.43;;
39242;SDS011;29823;47.404;8.566;2022-11-15T09:06:00;14.13;;;7.60;;
39242;SDS011;29823;47.404;8.566;2022-11-15T09:08:29;15.00;;;6.75;;
39242;SDS011;29823;47.404;8.566;2022-11-15T09:11:14;11.43;;;7.20;;
39242;SDS011;29823;47.404;8.566;2022-11-15T09:13:46;20.65;;;8.80;;
39242;SDS011;29823;47.404;8.566;2022-11-15T09:16:14;20.95;;;9.45;;
39242;SDS011;29823;47.404;8.566;2022-11-15T09:18:42;15.60;;;8.75;;
39242;SDS011;29823;47.404;8.566;2022-11-15T09:21:10;15.55;;;9.43;;
39242;SDS011;29823;47.404;8.566;2022-11-15T09:23:38;18.77;;;9.18;;
39242;SDS011;29823;47.404;8.566;2022-11-15T09:26:05;21.08;;;10.07;;
39242;SDS011;29823;47.404;8.566;2022-11-15T09:28:35;17.42;;;10.05;;
39242;SDS011;29823;47.404;8.566;2022-11-15T09:31:04;21.58;;;9.95;;
39242;SDS011;29823;47.404;8.566;2022-11-15T09:33:33;23.70;;;9.27;;
39242;SDS011;29823;47.404;8.566;2022-11-15T09:36:01;19.90;;;9.55;;
39242;SDS011;29823;47.404;8.566;2022-11-15T09:38:30;19.63;;;10.05;;
39242;SDS011;29823;47.404;8.566;2022-11-15T09:41:08;18.73;;;9.77;;
39242;SDS011;29823;47.404;8.566;2022-11-15T09:44:07;21.73;;;11.37;;
39242;SDS011;29823;47.404;8.566;2022-11-15T09:46:53;20.88;;;10.75;;
39242;SDS011;29823;47.404;8.566;2022-11-15T09:49:31;20.75;;;10.10;;
39242;SDS011;29823;47.404;8.566;2022-11-15T09:52:00;17.73;;;10.55;;
39242;SDS011;29823;47.404;8.566;2022-11-15T09:54:28;20.38;;;10.32;;
39242;SDS011;29823;47.404;8.566;2022-11-15T09:57:18;19.92;;;10.75;;
39242;SDS011;29823;47.404;8.566;2022-11-15T09:59:55;21.40;;;10.90;;
39242;SDS011;29823;47.404;8.566;2022-11-15T10:02:52;20.15;;;10.63;;
39242;SDS011;29823;47.404;8.566;2022-11-15T10:05:30;19.50;;;10.07;;
39242;SDS011;29823;47.404;8.566;2022-11-15T10:08:01;22.70;;;10.43;;
39242;SDS011;29823;47.404;8.566;2022-11-15T10:10:35;22.50;;;10.55;;
39242;SDS011;29823;47.404;8.566;2022-11-15T10:13:07;22.67;;;10.27;;
39242;SDS011;29823;47.404;8.566;2022-11-15T10:15:42;19.35;;;9.60;;
39242;SDS011;29823;47.404;8.566;2022-11-15T10:18:14;18.70;;;9.75;;
39242;SDS011;29823;47.404;8.566;2022-11-15T10:20:49;15.05;;;9.27;;
39242;SDS011;29823;47.404;8.566;2022-11-15T10:23:20;17.90;;;8.23;;
39242;SDS011;29823;47.404;8.566;2022-11-15T10:25:50;13.45;;;8.90;;
39242;SDS011;29823;47.404;8.566;2022-11-15T10:28:21;19.45;;;8.98;;
39242;SDS011;29823;47.404;8.566;2022-11-15T10:30:55;15.43;;;9.15;;
39242;SDS011;29823;47.404;8.566;2022-11-15T10:33:29;15.18;;;8.68;;
39242;SDS011;29823;47.404;8.566;2022-11-15T10:38:53;14.73;;;8.85;;
39242;SDS011;29823;47.404;8.566;2022-11-15T10:41:29;14.68;;;9.80;;
39242;SDS011;29823;47.404;8.566;2022-11-15T10:44:02;14.43;;;9.55;;
39242;SDS011;29823;47.404;8.566;2022-11-15T10:46:40;19.60;;;10.23;;
39242;SDS011;29823;47.404;8.566;2022-11-15T10:49:13;20.10;;;9.15;;
39242;SDS011;29823;47.404;8.566;2022-11-15T10:51:44;13.93;;;8.88;;
39242;SDS011;29823;47.404;8.566;2022-11-15T10:54:14;16.77;;;9.30;;
39242;SDS011;29823;47.404;8.566;2022-11-15T10:56:49;14.93;;;9.18;;
39242;SDS011;29823;47.404;8.566;2022-11-15T10:59:22;16.88;;;9.85;;
39242;SDS011;29823;47.404;8.566;2022-11-15T11:01:53;16.42;;;10.25;;
39242;SDS011;29823;47.404;8.566;2022-11-15T11:04:22;15.85;;;9.20;;
39242;SDS011;29823;47.404;8.566;2022-11-15T11:06:51;17.20;;;9.80;;
39242;SDS011;29823;47.404;8.566;2022-11-15T11:09:27;14.52;;;9.68;;
39242;SDS011;29823;47.404;8.566;2022-11-15T11:11:58;15.57;;;9.55;;
39242;SDS011;29823;47.404;8.566;2022-11-15T11:14:28;16.00;;;9.55;;
39242;SDS011;29823;47.404;8.566;2022-11-15T11:17:02;20.05;;;9.35;;
39242;SDS011;29823;47.404;8.566;2022-11-15T11:19:39;13.18;;;9.38;;
39242;SDS011;29823;47.404;8.566;2022-11-15T11:22:16;19.38;;;9.95;;
39242;SDS011;29823;47.404;8.566;2022-11-15T11:24:53;20.10;;;9.80;;
39242;SDS011;29823;47.404;8.566;2022-11-15T11:27:43;12.70;;;9.35;;
39242;SDS011;29823;47.404;8.566;2022-11-15T11:30:20;21.83;;;9.48;;
39242;SDS011;29823;47.404;8.566;2022-11-15T11:35:36;18.63;;;10.30;;
39242;SDS011;29823;47.404;8.566;2022-11-15T11:38:17;15.82;;;10.25;;
39242;SDS011;29823;47.404;8.566;2022-11-15T11:40:56;19.88;;;10.68;;
39242;SDS011;29823;47.404;8.566;2022-11-15T11:43:30;19.50;;;10.73;;
39242;SDS011;29823;47.404;8.566;2022-11-15T11:46:13;15.18;;;10.85;;
39242;SDS011;29823;47.404;8.566;2022-11-15T11:48:56;20.63;;;11.15;;
39242;SDS011;29823;47.404;8.566;2022-11-15T11:51:27;16.55;;;10.50;;
39242;SDS011;29823;47.404;8.566;2022-11-15T11:54:00;20.35;;;10.68;;
39242;SDS011;29823;47.404;8.566;2022-11-15T11:56:33;14.15;;;9.65;;
39242;SDS011;29823;47.404;8.566;2022-11-15T11:59:05;16.23;;;8.38;;
39242;SDS011;29823;47.404;8.566;2022-11-15T12:01:41;15.60;;;8.73;;
39242;SDS011;29823;47.404;8.566;2022-11-15T12:04:13;16.83;;;8.93;;
39242;SDS011;29823;47.404;8.566;2022-11-15T12:06:46;10.77;;;7.30;;
39242;SDS011;29823;47.404;8.566;2022-11-15T12:09:19;13.93;;;6.47;;
39242;SDS011;29823;47.404;8.566;2022-11-15T12:11:52;10.70;;;6.40;;
39242;SDS011;29823;47.404;8.566;2022-11-15T12:14:27;11.20;;;5.20;;
39242;SDS011;29823;47.404;8.566;2022-11-15T12:16:59;9.60;;;4.85;;
39242;SDS011;29823;47.404;8.566;2022-11-15T12:19:29;11.32;;;6.50;;
39242;SDS011;29823;47.404;8.566;2022-11-15T12:22:00;9.77;;;5.32;;
39242;SDS011;29823;47.404;8.566;2022-11-15T12:24:32;9.18;;;5.07;;
39242;SDS011;29823;47.404;8.566;2022-11-15T12:27:06;11.40;;;4.80;;
39242;SDS011;29823;47.404;8.566;2022-11-15T12:29:52;10.48;;;4.00;;
39242;SDS011;29823;47.404;8.566;2022-11-15T12:32:25;8.90;;;4.35;;
39242;SDS011;29823;47.404;8.566;2022-11-15T12:34:57;7.03;;;4.97;;
39242;SDS011;29823;47.404;8.566;2022-11-15T12:40:23;10.45;;;4.82;;
39242;SDS011;29823;47.404;8.566;2022-11-15T12:43:00;9.95;;;4.93;;
39242;SDS011;29823;47.404;8.566;2022-11-15T12:45:31;8.98;;;4.55;;
39242;SDS011;29823;47.404;8.566;2022-11-15T12:51:06;12.20;;;4.95;;
39242;SDS011;29823;47.404;8.566;2022-11-15T12:53:34;7.50;;;5.00;;
39242;SDS011;29823;47.404;8.566;2022-11-15T12:56:18;13.05;;;4.88;;
39242;SDS011;29823;47.404;8.566;2022-11-15T12:58:49;8.90;;;4.55;;
39242;SDS011;29823;47.404;8.566;2022-11-15T13:04:26;11.50;;;4.95;;
39242;SDS011;29823;47.404;8.566;2022-11-15T13:07:00;9.77;;;5.38;;
39242;SDS011;29823;47.404;8.566;2022-11-15T13:15:36;10.10;;;4.57;;
39242;SDS011;29823;47.404;8.566;2022-11-15T13:21:20;7.72;;;4.35;;
39242;SDS011;29823;47.404;8.566;2022-11-15T13:24:12;12.98;;;4.65;;
39242;SDS011;29823;47.404;8.566;2022-11-15T13:26:43;10.50;;;5.15;;
39242;SDS011;29823;47.404;8.566;2022-11-15T13:29:17;9.18;;;3.95;;
39242;SDS011;29823;47.404;8.566;2022-11-15T13:31:46;9.93;;;4.80;;
39242;SDS011;29823;47.404;8.566;2022-11-15T13:34:16;8.10;;;4.50;;
39242;SDS011;29823;47.404;8.566;2022-11-15T13:37:12;6.70;;;4.25;;
39242;SDS011;29823;47.404;8.566;2022-11-15T13:40:15;6.57;;;4.38;;
39242;SDS011;29823;47.404;8.566;2022-11-15T13:42:47;8.48;;;4.68;;
39242;SDS011;29823;47.404;8.566;2022-11-15T13:45:15;7.68;;;4.47;;
39242;SDS011;29823;47.404;8.566;2022-11-15T13:47:50;8.65;;;4.40;;
39242;SDS011;29823;47.404;8.566;2022-11-15T13:50:19;8.55;;;4.07;;
39242;SDS011;29823;47.404;8.566;2022-11-15T13:52:50;8.98;;;3.88;;
39242;SDS011;29823;47.404;8.566;2022-11-15T13:55:20;8.15;;;3.33;;
39242;SDS011;29823;47.404;8.566;2022-11-15T13:57:50;6.53;;;3.20;;
39242;SDS011;29823;47.404;8.566;2022-11-15T14:00:25;8.63;;;3.00;;
39242;SDS011;29823;47.404;8.566;2022-11-15T14:03:05;12.07;;;3.95;;
39242;SDS011;29823;47.404;8.566;2022-11-15T14:05:35;7.53;;;3.50;;
39242;SDS011;29823;47.404;8.566;2022-11-15T14:08:03;9.98;;;3.70;;
39242;SDS011;29823;47.404;8.566;2022-11-15T14:10:49;9.52;;;4.07;;
39242;SDS011;29823;47.404;8.566;2022-11-15T14:13:33;7.38;;;3.83;;
39242;SDS011;29823;47.404;8.566;2022-11-15T14:16:14;11.15;;;4.20;;
39242;SDS011;29823;47.404;8.566;2022-11-15T14:18:45;11.57;;;4.00;;
39242;SDS011;29823;47.404;8.566;2022-11-15T14:21:14;8.80;;;4.25;;
39242;SDS011;29823;47.404;8.566;2022-11-15T14:23:43;7.05;;;4.28;;
39242;SDS011;29823;47.404;8.566;2022-11-15T14:26:26;9.20;;;3.50;;
39242;SDS011;29823;47.404;8.566;2022-11-15T14:28:56;8.25;;;3.72;;
39242;SDS011;29823;47.404;8.566;2022-11-15T14:31:24;13.95;;;3.92;;
39242;SDS011;29823;47.404;8.566;2022-11-15T14:33:51;10.63;;;4.78;;
39242;SDS011;29823;47.404;8.566;2022-11-15T14:36:20;8.90;;;4.78;;
39242;SDS011;29823;47.404;8.566;2022-11-15T14:38:48;6.07;;;3.78;;
39242;SDS011;29823;47.404;8.566;2022-11-15T14:41:20;10.68;;;3.88;;
39242;SDS011;29823;47.404;8.566;2022-11-15T14:43:51;7.28;;;4.25;;
39242;SDS011;29823;47.404;8.566;2022-11-15T14:46:20;8.73;;;3.85;;
39242;SDS011;29823;47.404;8.566;2022-11-15T14:48:48;10.50;;;5.05;;
39242;SDS011;29823;47.404;8.566;2022-11-15T14:51:16;9.00;;;4.57;;
39242;SDS011;29823;47.404;8.566;2022-11-15T14:53:45;11.32;;;4.88;;
39242;SDS011;29823;47.404;8.566;2022-11-15T14:56:14;10.65;;;4.30;;
39242;SDS011;29823;47.404;8.566;2022-11-15T14:58:42;16.55;;;4.68;;
39242;SDS011;29823;47.404;8.566;2022-11-15T15:01:12;8.20;;;4.28;;
39242;SDS011;29823;47.404;8.566;2022-11-15T15:03:43;7.30;;;4.78;;
39242;SDS011;29823;47.404;8.566;2022-11-15T15:06:11;10.55;;;4.28;;
39242;SDS011;29823;47.404;8.566;2022-11-15T15:08:43;10.68;;;4.47;;
39242;SDS011;29823;47.404;8.566;2022-11-15T15:11:13;11.63;;;4.43;;
39242;SDS011;29823;47.404;8.566;2022-11-15T15:13:43;11.75;;;4.15;;
39242;SDS011;29823;47.404;8.566;2022-11-15T15:16:12;9.55;;;4.22;;
39242;SDS011;29823;47.404;8.566;2022-11-15T15:18:40;6.50;;;4.60;;
39242;SDS011;29823;47.404;8.566;2022-11-15T15:21:14;8.05;;;4.60;;
39242;SDS011;29823;47.404;8.566;2022-11-15T15:23:47;7.85;;;4.00;;
39242;SDS011;29823;47.404;8.566;2022-11-15T15:26:15;9.57;;;4.57;;
39242;SDS011;29823;47.404;8.566;2022-11-15T15:28:42;6.15;;;3.85;;
39242;SDS011;29823;47.404;8.566;2022-11-15T15:31:10;7.75;;;4.65;;
39242;SDS011;29823;47.404;8.566;2022-11-15T15:33:40;8.63;;;4.38;;
39242;SDS011;29823;47.404;8.566;2022-11-15T15:36:09;11.35;;;4.35;;